sensor_id;sensor_type;location;lat;lon;timestamp;P1;durP1;ratioP1;P2;durP2;ratioP2
21326;SDS011;10822;51.532;6.770;2023-02-10T00:00:26;38.58;;;21.55;;
21326;SDS011;10822;51.532;6.770;2023-02-10T00:02:52;43.63;;;23.15;;
21326;SDS011;10822;51.532;6.770;2023-02-10T00:05:18;40.20;;;22.88;;
21326;SDS011;10822;51.532;6.770;2023-02-10T00:07:44;33.22;;;20.50;;
21326;SDS011;10822;51.532;6.770;2023-02-10T00:10:10;38.35;;;21.77;;
21326;SDS011;10822;51.532;6.770;2023-02-10T00:12:36;38.00;;;23.60;;
21326;SDS011;10822;51.532;6.770;2023-02-10T00:15:03;37.90;;;22.13;;
21326;SDS011;10822;51.532;6.770;2023-02-10T00:17:29;41.58;;;22.67;;
21326;SDS011;10822;51.532;6.770;2023-02-10T00:19:55;37.53;;;21.88;;
21326;SDS011;10822;51.532;6.770;2023-02-10T00:22:21;38.13;;;22.23;;
21326;SDS011;10822;51.532;6.770;2023-02-10T00:24:47;36.92;;;21.85;;
21326;SDS011;10822;51.532;6.770;2023-02-10T00:27:13;37.50;;;21.60;;
21326;SDS011;10822;51.532;6.770;2023-02-10T00:29:39;41.25;;;22.15;;
21326;SDS011;10822;51.532;6.770;2023-02-10T00:32:05;38.65;;;21.65;;
21326;SDS011;10822;51.532;6.770;2023-02-10T00:34:31;39.42;;;22.27;;
21326;SDS011;10822;51.532;6.770;2023-02-10T00:36:57;38.13;;;21.85;;
21326;SDS011;10822;51.532;6.770;2023-02-10T00:39:23;37.38;;;21.17;;
21326;SDS011;10822;51.532;6.770;2023-02-10T00:41:49;40.75;;;23.55;;
21326;SDS011;10822;51.532;6.770;2023-02-10T00:44:15;41.95;;;22.60;;
21326;SDS011;10822;51.532;6.770;2023-02-10T00:46:41;37.95;;;22.85;;
21326;SDS011;10822;51.532;6.770;2023-02-10T00:49:09;41.10;;;22.80;;
21326;SDS011;10822;51.532;6.770;2023-02-10T00:51:35;38.00;;;22.25;;
21326;SDS011;10822;51.532;6.770;2023-02-10T00:54:01;40.15;;;23.00;;
21326;SDS011;10822;51.532;6.770;2023-02-10T00:56:27;45.28;;;22.95;;
21326;SDS011;10822;51.532;6.770;2023-02-10T00:58:53;38.72;;;21.98;;
21326;SDS011;10822;51.532;6.770;2023-02-10T01:01:19;39.92;;;22.20;;
21326;SDS011;10822;51.532;6.770;2023-02-10T01:03:45;38.25;;;21.73;;
21326;SDS011;10822;51.532;6.770;2023-02-10T01:06:12;44.35;;;23.67;;
21326;SDS011;10822;51.532;6.770;2023-02-10T01:08:39;44.30;;;24.50;;
21326;SDS011;10822;51.532;6.770;2023-02-10T01:11:06;47.33;;;25.92;;
21326;SDS011;10822;51.532;6.770;2023-02-10T01:13:32;48.47;;;24.17;;
21326;SDS011;10822;51.532;6.770;2023-02-10T01:15:59;40.85;;;23.20;;
21326;SDS011;10822;51.532;6.770;2023-02-10T01:18:25;43.33;;;24.48;;
21326;SDS011;10822;51.532;6.770;2023-02-10T01:20:51;44.60;;;24.45;;
21326;SDS011;10822;51.532;6.770;2023-02-10T01:23:17;49.00;;;25.00;;
21326;SDS011;10822;51.532;6.770;2023-02-10T01:25:43;37.28;;;22.27;;
21326;SDS011;10822;51.532;6.770;2023-02-10T01:28:09;46.85;;;25.95;;
21326;SDS011;10822;51.532;6.770;2023-02-10T01:30:35;44.75;;;24.40;;
21326;SDS011;10822;51.532;6.770;2023-02-10T01:33:01;43.17;;;23.70;;
21326;SDS011;10822;51.532;6.770;2023-02-10T01:35:27;41.75;;;24.05;;
21326;SDS011;10822;51.532;6.770;2023-02-10T01:37:53;43.88;;;23.80;;
21326;SDS011;10822;51.532;6.770;2023-02-10T01:40:20;41.20;;;24.02;;
21326;SDS011;10822;51.532;6.770;2023-02-10T01:42:46;46.90;;;24.27;;
21326;SDS011;10822;51.532;6.770;2023-02-10T01:45:17;42.33;;;23.75;;
21326;SDS011;10822;51.532;6.770;2023-02-10T01:47:43;45.50;;;24.80;;
21326;SDS011;10822;51.532;6.770;2023-02-10T01:50:11;39.20;;;22.83;;
21326;SDS011;10822;51.532;6.770;2023-02-10T01:52:37;46.17;;;24.98;;
21326;SDS011;10822;51.532;6.770;2023-02-10T01:55:07;53.40;;;25.77;;
21326;SDS011;10822;51.532;6.770;2023-02-10T01:57:34;43.40;;;24.75;;
21326;SDS011;10822;51.532;6.770;2023-02-10T02:00:01;49.50;;;25.50;;
21326;SDS011;10822;51.532;6.770;2023-02-10T02:02:27;44.28;;;23.50;;
21326;SDS011;10822;51.532;6.770;2023-02-10T02:04:58;44.13;;;25.20;;
21326;SDS011;10822;51.532;6.770;2023-02-10T02:07:25;41.78;;;23.92;;
21326;SDS011;10822;51.532;6.770;2023-02-10T02:09:52;44.58;;;24.83;;
21326;SDS011;10822;51.532;6.770;2023-02-10T02:17:36;46.05;;;25.83;;
21326;SDS011;10822;51.532;6.770;2023-02-10T02:33:40;45.65;;;24.70;;
21326;SDS011;10822;51.532;6.770;2023-02-10T02:36:13;44.40;;;26.08;;
21326;SDS011;10822;51.532;6.770;2023-02-10T02:41:07;47.33;;;25.98;;
21326;SDS011;10822;51.532;6.770;2023-02-10T02:43:33;47.72;;;26.15;;
21326;SDS011;10822;51.532;6.770;2023-02-10T02:46:17;45.55;;;25.73;;
21326;SDS011;10822;51.532;6.770;2023-02-10T02:51:52;42.53;;;25.50;;
21326;SDS011;10822;51.532;6.770;2023-02-10T02:54:27;47.55;;;26.55;;
21326;SDS011;10822;51.532;6.770;2023-02-10T02:56:58;47.83;;;26.80;;
21326;SDS011;10822;51.532;6.770;2023-02-10T02:59:41;43.58;;;25.08;;
21326;SDS011;10822;51.532;6.770;2023-02-10T03:02:10;50.15;;;25.88;;
21326;SDS011;10822;51.532;6.770;2023-02-10T03:04:37;51.80;;;27.15;;
21326;SDS011;10822;51.532;6.770;2023-02-10T03:07:04;52.70;;;28.30;;
21326;SDS011;10822;51.532;6.770;2023-02-10T03:09:30;47.83;;;26.33;;
21326;SDS011;10822;51.532;6.770;2023-02-10T03:11:56;46.83;;;26.60;;
21326;SDS011;10822;51.532;6.770;2023-02-10T03:14:22;44.75;;;25.63;;
21326;SDS011;10822;51.532;6.770;2023-02-10T03:16:48;48.85;;;27.33;;
21326;SDS011;10822;51.532;6.770;2023-02-10T03:19:14;49.42;;;25.60;;
21326;SDS011;10822;51.532;6.770;2023-02-10T03:21:41;51.30;;;27.70;;
21326;SDS011;10822;51.532;6.770;2023-02-10T03:24:06;51.80;;;27.73;;
21326;SDS011;10822;51.532;6.770;2023-02-10T03:26:33;52.35;;;27.30;;
21326;SDS011;10822;51.532;6.770;2023-02-10T03:28:59;48.13;;;27.42;;
21326;SDS011;10822;51.532;6.770;2023-02-10T03:31:25;48.88;;;27.08;;
21326;SDS011;10822;51.532;6.770;2023-02-10T03:33:51;52.63;;;28.95;;
21326;SDS011;10822;51.532;6.770;2023-02-10T03:36:17;49.40;;;27.20;;
21326;SDS011;10822;51.532;6.770;2023-02-10T03:38:43;48.85;;;27.13;;
21326;SDS011;10822;51.532;6.770;2023-02-10T03:41:10;56.83;;;30.40;;
21326;SDS011;10822;51.532;6.770;2023-02-10T03:43:36;63.22;;;31.20;;
21326;SDS011;10822;51.532;6.770;2023-02-10T03:46:03;56.65;;;30.38;;
21326;SDS011;10822;51.532;6.770;2023-02-10T03:48:29;55.75;;;29.65;;
21326;SDS011;10822;51.532;6.770;2023-02-10T03:50:59;51.78;;;27.55;;
21326;SDS011;10822;51.532;6.770;2023-02-10T03:53:25;51.45;;;28.90;;
21326;SDS011;10822;51.532;6.770;2023-02-10T03:55:52;59.42;;;30.83;;
21326;SDS011;10822;51.532;6.770;2023-02-10T03:58:18;54.05;;;29.05;;
21326;SDS011;10822;51.532;6.770;2023-02-10T04:00:44;51.03;;;27.67;;
21326;SDS011;10822;51.532;6.770;2023-02-10T04:03:10;55.50;;;29.13;;
21326;SDS011;10822;51.532;6.770;2023-02-10T04:05:36;51.38;;;28.67;;
21326;SDS011;10822;51.532;6.770;2023-02-10T04:08:01;50.10;;;27.88;;
21326;SDS011;10822;51.532;6.770;2023-02-10T04:10:28;55.08;;;29.98;;
21326;SDS011;10822;51.532;6.770;2023-02-10T04:12:54;53.50;;;28.65;;
21326;SDS011;10822;51.532;6.770;2023-02-10T04:15:19;57.80;;;31.00;;
21326;SDS011;10822;51.532;6.770;2023-02-10T04:17:45;64.53;;;31.67;;
21326;SDS011;10822;51.532;6.770;2023-02-10T04:20:12;64.18;;;33.33;;
21326;SDS011;10822;51.532;6.770;2023-02-10T04:22:38;57.90;;;31.42;;
21326;SDS011;10822;51.532;6.770;2023-02-10T04:25:04;58.55;;;30.67;;
21326;SDS011;10822;51.532;6.770;2023-02-10T04:27:30;56.83;;;30.20;;
21326;SDS011;10822;51.532;6.770;2023-02-10T04:29:56;60.97;;;30.98;;
21326;SDS011;10822;51.532;6.770;2023-02-10T04:32:22;58.03;;;30.05;;
21326;SDS011;10822;51.532;6.770;2023-02-10T04:34:48;53.92;;;29.75;;
21326;SDS011;10822;51.532;6.770;2023-02-10T04:37:14;49.20;;;27.35;;
21326;SDS011;10822;51.532;6.770;2023-02-10T04:39:40;52.60;;;27.92;;
21326;SDS011;10822;51.532;6.770;2023-02-10T04:42:06;55.08;;;27.80;;
21326;SDS011;10822;51.532;6.770;2023-02-10T04:44:32;49.80;;;26.50;;
21326;SDS011;10822;51.532;6.770;2023-02-10T04:46:58;52.53;;;28.55;;
21326;SDS011;10822;51.532;6.770;2023-02-10T04:49:24;53.60;;;29.13;;
21326;SDS011;10822;51.532;6.770;2023-02-10T04:51:50;50.83;;;28.00;;
21326;SDS011;10822;51.532;6.770;2023-02-10T04:54:16;50.30;;;27.58;;
21326;SDS011;10822;51.532;6.770;2023-02-10T04:56:42;51.60;;;27.60;;
21326;SDS011;10822;51.532;6.770;2023-02-10T04:59:08;54.30;;;28.05;;
21326;SDS011;10822;51.532;6.770;2023-02-10T05:01:34;53.92;;;28.63;;
21326;SDS011;10822;51.532;6.770;2023-02-10T05:04:01;53.47;;;28.75;;
21326;SDS011;10822;51.532;6.770;2023-02-10T05:06:27;55.30;;;28.50;;
21326;SDS011;10822;51.532;6.770;2023-02-10T05:08:53;53.10;;;28.35;;
21326;SDS011;10822;51.532;6.770;2023-02-10T05:11:18;53.25;;;28.45;;
21326;SDS011;10822;51.532;6.770;2023-02-10T05:13:45;54.05;;;28.17;;
21326;SDS011;10822;51.532;6.770;2023-02-10T05:16:11;50.70;;;27.25;;
21326;SDS011;10822;51.532;6.770;2023-02-10T05:18:38;53.22;;;28.50;;
21326;SDS011;10822;51.532;6.770;2023-02-10T05:21:04;53.58;;;28.10;;
21326;SDS011;10822;51.532;6.770;2023-02-10T05:23:33;52.35;;;27.33;;
21326;SDS011;10822;51.532;6.770;2023-02-10T05:26:00;53.55;;;27.48;;
21326;SDS011;10822;51.532;6.770;2023-02-10T05:28:26;54.45;;;27.98;;
21326;SDS011;10822;51.532;6.770;2023-02-10T05:30:52;50.90;;;27.52;;
21326;SDS011;10822;51.532;6.770;2023-02-10T05:33:19;50.42;;;27.83;;
21326;SDS011;10822;51.532;6.770;2023-02-10T05:35:45;51.83;;;27.83;;
21326;SDS011;10822;51.532;6.770;2023-02-10T05:38:11;52.55;;;27.95;;
21326;SDS011;10822;51.532;6.770;2023-02-10T05:40:37;51.80;;;28.50;;
21326;SDS011;10822;51.532;6.770;2023-02-10T05:43:03;49.97;;;26.40;;
21326;SDS011;10822;51.532;6.770;2023-02-10T05:45:29;56.63;;;28.48;;
21326;SDS011;10822;51.532;6.770;2023-02-10T05:47:55;54.70;;;28.70;;
21326;SDS011;10822;51.532;6.770;2023-02-10T05:50:21;53.72;;;27.90;;
21326;SDS011;10822;51.532;6.770;2023-02-10T05:52:47;53.40;;;27.60;;
21326;SDS011;10822;51.532;6.770;2023-02-10T05:55:13;54.50;;;28.45;;
21326;SDS011;10822;51.532;6.770;2023-02-10T05:57:39;54.03;;;28.35;;
21326;SDS011;10822;51.532;6.770;2023-02-10T06:00:05;53.15;;;28.48;;
21326;SDS011;10822;51.532;6.770;2023-02-10T06:02:32;58.17;;;30.05;;
21326;SDS011;10822;51.532;6.770;2023-02-10T06:04:58;54.83;;;27.58;;
21326;SDS011;10822;51.532;6.770;2023-02-10T06:07:24;52.88;;;28.80;;
21326;SDS011;10822;51.532;6.770;2023-02-10T06:09:50;61.42;;;28.90;;
21326;SDS011;10822;51.532;6.770;2023-02-10T06:12:16;58.67;;;28.20;;
21326;SDS011;10822;51.532;6.770;2023-02-10T06:14:42;55.00;;;28.23;;
21326;SDS011;10822;51.532;6.770;2023-02-10T06:17:08;53.78;;;26.98;;
21326;SDS011;10822;51.532;6.770;2023-02-10T06:19:35;51.70;;;28.23;;
21326;SDS011;10822;51.532;6.770;2023-02-10T06:22:01;59.65;;;29.05;;
21326;SDS011;10822;51.532;6.770;2023-02-10T06:24:27;53.25;;;29.00;;
21326;SDS011;10822;51.532;6.770;2023-02-10T06:26:53;64.00;;;33.35;;
21326;SDS011;10822;51.532;6.770;2023-02-10T06:29:19;78.82;;;39.58;;
21326;SDS011;10822;51.532;6.770;2023-02-10T06:31:45;63.70;;;34.17;;
21326;SDS011;10822;51.532;6.770;2023-02-10T06:34:11;57.33;;;33.53;;
21326;SDS011;10822;51.532;6.770;2023-02-10T06:36:37;57.67;;;31.17;;
21326;SDS011;10822;51.532;6.770;2023-02-10T06:39:03;60.28;;;30.30;;
21326;SDS011;10822;51.532;6.770;2023-02-10T06:41:30;59.60;;;30.83;;
21326;SDS011;10822;51.532;6.770;2023-02-10T06:43:56;55.10;;;28.75;;
21326;SDS011;10822;51.532;6.770;2023-02-10T06:46:22;56.00;;;30.20;;
21326;SDS011;10822;51.532;6.770;2023-02-10T06:48:48;60.30;;;29.92;;
21326;SDS011;10822;51.532;6.770;2023-02-10T06:51:14;55.47;;;29.60;;
21326;SDS011;10822;51.532;6.770;2023-02-10T06:53:40;60.97;;;30.90;;
21326;SDS011;10822;51.532;6.770;2023-02-10T06:56:07;56.33;;;30.30;;
21326;SDS011;10822;51.532;6.770;2023-02-10T06:58:33;59.88;;;30.77;;
21326;SDS011;10822;51.532;6.770;2023-02-10T07:00:59;60.25;;;30.95;;
21326;SDS011;10822;51.532;6.770;2023-02-10T07:03:26;58.65;;;30.90;;
21326;SDS011;10822;51.532;6.770;2023-02-10T07:05:52;65.22;;;32.22;;
21326;SDS011;10822;51.532;6.770;2023-02-10T07:08:18;58.88;;;30.67;;
21326;SDS011;10822;51.532;6.770;2023-02-10T07:10:44;57.17;;;30.60;;
21326;SDS011;10822;51.532;6.770;2023-02-10T07:13:10;63.70;;;31.65;;
21326;SDS011;10822;51.532;6.770;2023-02-10T07:15:36;58.15;;;31.50;;
21326;SDS011;10822;51.532;6.770;2023-02-10T07:18:01;59.33;;;31.20;;
21326;SDS011;10822;51.532;6.770;2023-02-10T07:20:27;56.53;;;29.75;;
21326;SDS011;10822;51.532;6.770;2023-02-10T07:22:53;68.63;;;32.42;;
21326;SDS011;10822;51.532;6.770;2023-02-10T07:25:19;64.38;;;32.78;;
21326;SDS011;10822;51.532;6.770;2023-02-10T07:27:45;67.03;;;32.88;;
21326;SDS011;10822;51.532;6.770;2023-02-10T07:30:12;61.22;;;31.27;;
21326;SDS011;10822;51.532;6.770;2023-02-10T07:32:38;67.18;;;32.53;;
21326;SDS011;10822;51.532;6.770;2023-02-10T07:35:06;71.25;;;35.15;;
21326;SDS011;10822;51.532;6.770;2023-02-10T07:37:32;76.68;;;37.65;;
21326;SDS011;10822;51.532;6.770;2023-02-10T07:39:58;68.43;;;35.28;;
21326;SDS011;10822;51.532;6.770;2023-02-10T07:42:24;69.45;;;35.15;;
21326;SDS011;10822;51.532;6.770;2023-02-10T07:44:50;69.15;;;35.42;;
21326;SDS011;10822;51.532;6.770;2023-02-10T07:47:17;66.88;;;36.03;;
21326;SDS011;10822;51.532;6.770;2023-02-10T07:49:43;69.38;;;34.10;;
21326;SDS011;10822;51.532;6.770;2023-02-10T07:52:09;66.97;;;33.58;;
21326;SDS011;10822;51.532;6.770;2023-02-10T07:54:35;64.55;;;32.95;;
21326;SDS011;10822;51.532;6.770;2023-02-10T07:57:01;66.25;;;32.80;;
21326;SDS011;10822;51.532;6.770;2023-02-10T07:59:27;68.90;;;34.50;;
21326;SDS011;10822;51.532;6.770;2023-02-10T08:01:53;66.57;;;31.60;;
21326;SDS011;10822;51.532;6.770;2023-02-10T08:04:19;57.00;;;30.55;;
21326;SDS011;10822;51.532;6.770;2023-02-10T08:06:45;58.13;;;32.05;;
21326;SDS011;10822;51.532;6.770;2023-02-10T08:09:12;65.07;;;33.92;;
21326;SDS011;10822;51.532;6.770;2023-02-10T08:11:40;61.50;;;33.65;;
21326;SDS011;10822;51.532;6.770;2023-02-10T08:14:06;58.47;;;31.48;;
21326;SDS011;10822;51.532;6.770;2023-02-10T08:16:32;55.33;;;32.17;;
21326;SDS011;10822;51.532;6.770;2023-02-10T08:18:58;64.28;;;33.63;;
21326;SDS011;10822;51.532;6.770;2023-02-10T08:21:25;63.85;;;33.10;;
21326;SDS011;10822;51.532;6.770;2023-02-10T08:23:51;62.70;;;33.03;;
21326;SDS011;10822;51.532;6.770;2023-02-10T08:26:20;59.78;;;31.35;;
21326;SDS011;10822;51.532;6.770;2023-02-10T08:28:47;58.75;;;32.63;;
21326;SDS011;10822;51.532;6.770;2023-02-10T08:31:13;59.80;;;31.80;;
21326;SDS011;10822;51.532;6.770;2023-02-10T08:33:39;58.63;;;30.45;;
21326;SDS011;10822;51.532;6.770;2023-02-10T08:36:07;56.08;;;29.88;;
21326;SDS011;10822;51.532;6.770;2023-02-10T08:38:33;52.53;;;29.05;;
21326;SDS011;10822;51.532;6.770;2023-02-10T08:41:00;55.72;;;29.80;;
21326;SDS011;10822;51.532;6.770;2023-02-10T08:43:26;59.28;;;30.45;;
21326;SDS011;10822;51.532;6.770;2023-02-10T08:45:54;57.33;;;30.02;;
21326;SDS011;10822;51.532;6.770;2023-02-10T08:48:20;52.13;;;28.88;;
21326;SDS011;10822;51.532;6.770;2023-02-10T08:50:46;54.42;;;30.17;;
21326;SDS011;10822;51.532;6.770;2023-02-10T08:53:12;50.88;;;28.70;;
21326;SDS011;10822;51.532;6.770;2023-02-10T08:55:38;54.83;;;28.33;;
21326;SDS011;10822;51.532;6.770;2023-02-10T08:58:04;53.22;;;29.23;;
21326;SDS011;10822;51.532;6.770;2023-02-10T09:00:30;52.80;;;28.30;;
21326;SDS011;10822;51.532;6.770;2023-02-10T09:02:56;46.45;;;26.98;;
21326;SDS011;10822;51.532;6.770;2023-02-10T09:05:22;45.78;;;27.40;;
21326;SDS011;10822;51.532;6.770;2023-02-10T09:07:48;49.08;;;26.60;;
21326;SDS011;10822;51.532;6.770;2023-02-10T09:10:15;48.92;;;28.33;;
21326;SDS011;10822;51.532;6.770;2023-02-10T09:12:41;48.05;;;27.02;;
21326;SDS011;10822;51.532;6.770;2023-02-10T09:15:08;47.88;;;27.25;;
21326;SDS011;10822;51.532;6.770;2023-02-10T09:17:34;45.72;;;27.35;;
21326;SDS011;10822;51.532;6.770;2023-02-10T09:53:26;63.13;;;31.15;;
21326;SDS011;10822;51.532;6.770;2023-02-10T10:01:22;62.75;;;31.67;;
21326;SDS011;10822;51.532;6.770;2023-02-10T10:03:54;61.30;;;30.15;;
21326;SDS011;10822;51.532;6.770;2023-02-10T10:06:31;63.95;;;30.52;;
21326;SDS011;10822;51.532;6.770;2023-02-10T10:11:37;67.43;;;31.95;;
21326;SDS011;10822;51.532;6.770;2023-02-10T10:14:04;64.85;;;32.03;;
21326;SDS011;10822;51.532;6.770;2023-02-10T10:26:52;63.45;;;31.00;;
21326;SDS011;10822;51.532;6.770;2023-02-10T10:29:39;64.97;;;31.67;;
21326;SDS011;10822;51.532;6.770;2023-02-10T10:32:22;73.00;;;33.25;;
21326;SDS011;10822;51.532;6.770;2023-02-10T10:34:53;68.32;;;32.13;;
21326;SDS011;10822;51.532;6.770;2023-02-10T10:37:23;64.07;;;31.60;;
21326;SDS011;10822;51.532;6.770;2023-02-10T10:39:52;66.40;;;32.78;;
21326;SDS011;10822;51.532;6.770;2023-02-10T10:42:31;68.47;;;31.85;;
21326;SDS011;10822;51.532;6.770;2023-02-10T10:45:11;67.63;;;32.40;;
21326;SDS011;10822;51.532;6.770;2023-02-10T10:47:42;64.07;;;30.83;;
21326;SDS011;10822;51.532;6.770;2023-02-10T10:50:13;61.90;;;31.70;;
21326;SDS011;10822;51.532;6.770;2023-02-10T10:52:40;64.15;;;30.23;;
21326;SDS011;10822;51.532;6.770;2023-02-10T10:55:17;58.22;;;30.30;;
21326;SDS011;10822;51.532;6.770;2023-02-10T10:57:45;61.13;;;30.67;;
21326;SDS011;10822;51.532;6.770;2023-02-10T11:02:54;59.13;;;29.77;;
21326;SDS011;10822;51.532;6.770;2023-02-10T11:05:20;57.45;;;27.90;;
21326;SDS011;10822;51.532;6.770;2023-02-10T11:07:47;53.20;;;27.02;;
21326;SDS011;10822;51.532;6.770;2023-02-10T11:12:52;49.92;;;25.58;;
21326;SDS011;10822;51.532;6.770;2023-02-10T11:15:38;51.10;;;27.35;;
21326;SDS011;10822;51.532;6.770;2023-02-10T11:18:05;48.20;;;26.08;;
21326;SDS011;10822;51.532;6.770;2023-02-10T11:20:33;50.95;;;26.23;;
21326;SDS011;10822;51.532;6.770;2023-02-10T11:23:01;45.00;;;25.00;;
21326;SDS011;10822;51.532;6.770;2023-02-10T11:25:32;47.67;;;26.10;;
21326;SDS011;10822;51.532;6.770;2023-02-10T11:27:58;47.33;;;26.23;;
21326;SDS011;10822;51.532;6.770;2023-02-10T11:32:54;50.50;;;27.27;;
21326;SDS011;10822;51.532;6.770;2023-02-10T11:35:20;41.10;;;23.25;;
21326;SDS011;10822;51.532;6.770;2023-02-10T11:38:20;43.30;;;24.45;;
21326;SDS011;10822;51.532;6.770;2023-02-10T11:43:14;41.28;;;21.08;;
21326;SDS011;10822;51.532;6.770;2023-02-10T11:45:50;42.00;;;21.58;;
21326;SDS011;10822;51.532;6.770;2023-02-10T11:48:18;38.83;;;21.65;;
21326;SDS011;10822;51.532;6.770;2023-02-10T11:50:44;37.53;;;20.35;;
21326;SDS011;10822;51.532;6.770;2023-02-10T11:53:29;41.33;;;22.08;;
21326;SDS011;10822;51.532;6.770;2023-02-10T11:56:16;40.67;;;22.33;;
21326;SDS011;10822;51.532;6.770;2023-02-10T12:01:32;41.75;;;21.90;;
21326;SDS011;10822;51.532;6.770;2023-02-10T12:04:03;39.97;;;21.38;;
21326;SDS011;10822;51.532;6.770;2023-02-10T12:19:44;30.13;;;16.10;;
21326;SDS011;10822;51.532;6.770;2023-02-10T12:22:19;33.97;;;17.27;;
21326;SDS011;10822;51.532;6.770;2023-02-10T12:24:55;31.35;;;16.65;;
21326;SDS011;10822;51.532;6.770;2023-02-10T12:27:45;33.47;;;16.10;;
21326;SDS011;10822;51.532;6.770;2023-02-10T12:33:04;31.95;;;16.30;;
21326;SDS011;10822;51.532;6.770;2023-02-10T12:45:45;26.52;;;14.27;;
21326;SDS011;10822;51.532;6.770;2023-02-10T12:53:35;25.90;;;12.70;;
21326;SDS011;10822;51.532;6.770;2023-02-10T12:56:05;24.08;;;12.73;;
21326;SDS011;10822;51.532;6.770;2023-02-10T12:58:34;28.80;;;14.15;;
21326;SDS011;10822;51.532;6.770;2023-02-10T13:03:47;23.77;;;12.32;;
21326;SDS011;10822;51.532;6.770;2023-02-10T13:06:19;29.13;;;11.65;;
21326;SDS011;10822;51.532;6.770;2023-02-10T13:08:51;20.85;;;11.40;;
21326;SDS011;10822;51.532;6.770;2023-02-10T13:11:29;26.85;;;11.60;;
21326;SDS011;10822;51.532;6.770;2023-02-10T13:13:57;24.00;;;12.70;;
21326;SDS011;10822;51.532;6.770;2023-02-10T13:16:25;28.77;;;12.80;;
21326;SDS011;10822;51.532;6.770;2023-02-10T13:19:17;24.02;;;12.80;;
21326;SDS011;10822;51.532;6.770;2023-02-10T13:24:28;31.27;;;14.68;;
21326;SDS011;10822;51.532;6.770;2023-02-10T13:26:59;29.00;;;14.10;;
21326;SDS011;10822;51.532;6.770;2023-02-10T13:34:30;28.17;;;12.07;;
21326;SDS011;10822;51.532;6.770;2023-02-10T13:37:05;22.88;;;11.88;;
21326;SDS011;10822;51.532;6.770;2023-02-10T13:39:31;27.73;;;11.52;;
21326;SDS011;10822;51.532;6.770;2023-02-10T13:42:33;27.33;;;11.63;;
21326;SDS011;10822;51.532;6.770;2023-02-10T13:44:57;22.80;;;11.00;;
21326;SDS011;10822;51.532;6.770;2023-02-10T13:47:26;26.48;;;12.63;;
21326;SDS011;10822;51.532;6.770;2023-02-10T13:58:27;25.73;;;11.80;;
21326;SDS011;10822;51.532;6.770;2023-02-10T14:05:50;24.65;;;12.63;;
21326;SDS011;10822;51.532;6.770;2023-02-10T14:08:27;22.30;;;12.30;;
21326;SDS011;10822;51.532;6.770;2023-02-10T14:11:02;23.75;;;11.80;;
21326;SDS011;10822;51.532;6.770;2023-02-10T14:13:32;25.08;;;11.95;;
21326;SDS011;10822;51.532;6.770;2023-02-10T14:15:59;24.63;;;12.75;;
21326;SDS011;10822;51.532;6.770;2023-02-10T14:18:33;37.35;;;16.25;;
21326;SDS011;10822;51.532;6.770;2023-02-10T14:23:29;29.80;;;15.43;;
21326;SDS011;10822;51.532;6.770;2023-02-10T14:25:57;28.98;;;15.48;;
21326;SDS011;10822;51.532;6.770;2023-02-10T14:28:25;36.05;;;17.27;;
21326;SDS011;10822;51.532;6.770;2023-02-10T14:31:00;28.40;;;16.27;;
21326;SDS011;10822;51.532;6.770;2023-02-10T14:33:28;39.53;;;18.33;;
21326;SDS011;10822;51.532;6.770;2023-02-10T14:35:55;36.88;;;18.23;;
21326;SDS011;10822;51.532;6.770;2023-02-10T14:38:23;35.40;;;19.92;;
21326;SDS011;10822;51.532;6.770;2023-02-10T14:40:49;37.25;;;21.27;;
21326;SDS011;10822;51.532;6.770;2023-02-10T14:43:18;32.38;;;18.98;;
21326;SDS011;10822;51.532;6.770;2023-02-10T14:45:44;38.55;;;21.23;;
21326;SDS011;10822;51.532;6.770;2023-02-10T14:48:12;37.50;;;21.13;;
21326;SDS011;10822;51.532;6.770;2023-02-10T14:50:38;36.28;;;21.48;;
21326;SDS011;10822;51.532;6.770;2023-02-10T14:53:05;36.15;;;20.23;;
21326;SDS011;10822;51.532;6.770;2023-02-10T14:55:36;37.28;;;22.00;;
21326;SDS011;10822;51.532;6.770;2023-02-10T14:58:09;35.53;;;21.48;;
21326;SDS011;10822;51.532;6.770;2023-02-10T15:00:36;38.25;;;22.30;;
21326;SDS011;10822;51.532;6.770;2023-02-10T15:03:02;35.05;;;21.92;;
21326;SDS011;10822;51.532;6.770;2023-02-10T15:05:37;38.20;;;23.35;;
21326;SDS011;10822;51.532;6.770;2023-02-10T15:08:03;38.38;;;21.25;;
21326;SDS011;10822;51.532;6.770;2023-02-10T15:10:35;36.33;;;20.92;;
21326;SDS011;10822;51.532;6.770;2023-02-10T15:13:04;35.45;;;21.30;;
21326;SDS011;10822;51.532;6.770;2023-02-10T15:15:34;35.45;;;21.55;;
21326;SDS011;10822;51.532;6.770;2023-02-10T15:18:20;35.83;;;21.17;;
21326;SDS011;10822;51.532;6.770;2023-02-10T15:20:54;39.30;;;22.38;;
21326;SDS011;10822;51.532;6.770;2023-02-10T15:23:20;34.05;;;19.95;;
21326;SDS011;10822;51.532;6.770;2023-02-10T15:25:47;35.88;;;21.63;;
21326;SDS011;10822;51.532;6.770;2023-02-10T15:28:25;35.15;;;20.80;;
21326;SDS011;10822;51.532;6.770;2023-02-10T15:33:25;40.15;;;22.60;;
21326;SDS011;10822;51.532;6.770;2023-02-10T15:35:52;39.08;;;20.70;;
21326;SDS011;10822;51.532;6.770;2023-02-10T15:38:18;37.28;;;22.27;;
21326;SDS011;10822;51.532;6.770;2023-02-10T15:40:52;36.45;;;20.98;;
21326;SDS011;10822;51.532;6.770;2023-02-10T15:43:23;39.28;;;22.17;;
21326;SDS011;10822;51.532;6.770;2023-02-10T15:45:49;36.28;;;21.92;;
21326;SDS011;10822;51.532;6.770;2023-02-10T15:48:19;37.92;;;22.63;;
21326;SDS011;10822;51.532;6.770;2023-02-10T15:50:46;34.90;;;21.88;;
21326;SDS011;10822;51.532;6.770;2023-02-10T15:53:13;34.15;;;20.17;;
21326;SDS011;10822;51.532;6.770;2023-02-10T15:55:43;32.55;;;19.52;;
21326;SDS011;10822;51.532;6.770;2023-02-10T15:58:10;35.05;;;19.33;;
21326;SDS011;10822;51.532;6.770;2023-02-10T16:00:37;27.73;;;18.40;;
21326;SDS011;10822;51.532;6.770;2023-02-10T16:03:03;29.20;;;17.85;;
21326;SDS011;10822;51.532;6.770;2023-02-10T16:05:30;26.67;;;16.27;;
21326;SDS011;10822;51.532;6.770;2023-02-10T16:08:02;29.40;;;17.60;;
21326;SDS011;10822;51.532;6.770;2023-02-10T16:10:30;28.63;;;16.60;;
21326;SDS011;10822;51.532;6.770;2023-02-10T16:12:56;24.55;;;16.55;;
21326;SDS011;10822;51.532;6.770;2023-02-10T16:15:23;25.67;;;16.17;;
21326;SDS011;10822;51.532;6.770;2023-02-10T16:17:50;29.02;;;17.48;;
21326;SDS011;10822;51.532;6.770;2023-02-10T16:20:22;33.05;;;17.13;;
21326;SDS011;10822;51.532;6.770;2023-02-10T16:22:51;27.55;;;15.80;;
21326;SDS011;10822;51.532;6.770;2023-02-10T16:25:18;28.65;;;16.08;;
21326;SDS011;10822;51.532;6.770;2023-02-10T16:27:45;27.67;;;16.95;;
21326;SDS011;10822;51.532;6.770;2023-02-10T16:30:15;27.70;;;16.55;;
21326;SDS011;10822;51.532;6.770;2023-02-10T16:32:44;29.05;;;18.02;;
21326;SDS011;10822;51.532;6.770;2023-02-10T16:35:11;26.92;;;15.93;;
21326;SDS011;10822;51.532;6.770;2023-02-10T16:37:37;27.48;;;16.38;;
21326;SDS011;10822;51.532;6.770;2023-02-10T16:40:03;31.63;;;17.27;;
21326;SDS011;10822;51.532;6.770;2023-02-10T16:42:29;29.67;;;16.85;;
21326;SDS011;10822;51.532;6.770;2023-02-10T16:44:55;26.13;;;16.08;;
21326;SDS011;10822;51.532;6.770;2023-02-10T16:47:21;29.27;;;17.13;;
21326;SDS011;10822;51.532;6.770;2023-02-10T16:49:48;36.58;;;18.02;;
21326;SDS011;10822;51.532;6.770;2023-02-10T16:52:14;39.33;;;20.25;;
21326;SDS011;10822;51.532;6.770;2023-02-10T16:54:45;34.15;;;18.10;;